sensor_id;sensor_type;location;lat;lon;timestamp;P1;durP1;ratioP1;P2;durP2;ratioP2
53961;SDS011;39868;53.398;6.564;2022-12-18T00:01:24;44.93;;;18.00;;
53961;SDS011;39868;53.398;6.564;2022-12-18T00:03:53;49.77;;;16.80;;
53961;SDS011;39868;53.398;6.564;2022-12-18T00:06:22;44.47;;;17.63;;
53961;SDS011;39868;53.398;6.564;2022-12-18T00:08:51;38.70;;;18.13;;
53961;SDS011;39868;53.398;6.564;2022-12-18T00:11:20;55.50;;;16.60;;
53961;SDS011;39868;53.398;6.564;2022-12-18T00:13:50;50.53;;;16.40;;
53961;SDS011;39868;53.398;6.564;2022-12-18T00:16:20;35.50;;;16.17;;
53961;SDS011;39868;53.398;6.564;2022-12-18T00:18:50;36.03;;;15.03;;
53961;SDS011;39868;53.398;6.564;2022-12-18T00:21:19;43.67;;;16.23;;
53961;SDS011;39868;53.398;6.564;2022-12-18T00:23:48;53.27;;;17.00;;
53961;SDS011;39868;53.398;6.564;2022-12-18T00:26:20;41.53;;;15.53;;
53961;SDS011;39868;53.398;6.564;2022-12-18T00:29:04;46.83;;;16.63;;
53961;SDS011;39868;53.398;6.564;2022-12-18T00:31:34;41.97;;;14.57;;
53961;SDS011;39868;53.398;6.564;2022-12-18T00:34:02;47.50;;;16.37;;
53961;SDS011;39868;53.398;6.564;2022-12-18T00:36:31;47.10;;;15.53;;
53961;SDS011;39868;53.398;6.564;2022-12-18T00:39:02;41.93;;;15.97;;
53961;SDS011;39868;53.398;6.564;2022-12-18T00:41:31;43.53;;;17.20;;
53961;SDS011;39868;53.398;6.564;2022-12-18T00:44:18;41.23;;;15.43;;
53961;SDS011;39868;53.398;6.564;2022-12-18T00:46:46;33.47;;;15.73;;
53961;SDS011;39868;53.398;6.564;2022-12-18T00:49:15;35.33;;;13.40;;
53961;SDS011;39868;53.398;6.564;2022-12-18T00:51:46;42.37;;;15.73;;
53961;SDS011;39868;53.398;6.564;2022-12-18T00:54:14;39.07;;;14.80;;
53961;SDS011;39868;53.398;6.564;2022-12-18T00:56:43;40.70;;;15.67;;
53961;SDS011;39868;53.398;6.564;2022-12-18T00:59:17;42.73;;;14.53;;
53961;SDS011;39868;53.398;6.564;2022-12-18T01:01:45;36.47;;;15.30;;
53961;SDS011;39868;53.398;6.564;2022-12-18T01:04:13;41.67;;;14.93;;
53961;SDS011;39868;53.398;6.564;2022-12-18T01:06:44;43.80;;;16.10;;
53961;SDS011;39868;53.398;6.564;2022-12-18T01:09:12;49.47;;;16.83;;
53961;SDS011;39868;53.398;6.564;2022-12-18T01:11:39;36.73;;;13.70;;
53961;SDS011;39868;53.398;6.564;2022-12-18T01:14:09;35.20;;;14.87;;
53961;SDS011;39868;53.398;6.564;2022-12-18T01:16:37;42.13;;;15.33;;
53961;SDS011;39868;53.398;6.564;2022-12-18T01:19:05;44.03;;;17.43;;
53961;SDS011;39868;53.398;6.564;2022-12-18T01:21:32;34.00;;;14.63;;
53961;SDS011;39868;53.398;6.564;2022-12-18T01:24:02;38.97;;;14.43;;
53961;SDS011;39868;53.398;6.564;2022-12-18T01:26:40;41.70;;;14.83;;
53961;SDS011;39868;53.398;6.564;2022-12-18T01:29:08;36.63;;;12.53;;
53961;SDS011;39868;53.398;6.564;2022-12-18T01:31:35;38.47;;;15.47;;
53961;SDS011;39868;53.398;6.564;2022-12-18T01:34:04;39.53;;;15.63;;
53961;SDS011;39868;53.398;6.564;2022-12-18T01:36:34;45.10;;;14.53;;
53961;SDS011;39868;53.398;6.564;2022-12-18T01:39:04;45.60;;;15.30;;
53961;SDS011;39868;53.398;6.564;2022-12-18T01:41:34;39.40;;;15.17;;
53961;SDS011;39868;53.398;6.564;2022-12-18T01:52:55;34.13;;;14.37;;
53961;SDS011;39868;53.398;6.564;2022-12-18T01:55:31;39.60;;;14.97;;
53961;SDS011;39868;53.398;6.564;2022-12-18T01:58:14;35.30;;;13.87;;
53961;SDS011;39868;53.398;6.564;2022-12-18T02:00:42;34.10;;;13.60;;
53961;SDS011;39868;53.398;6.564;2022-12-18T02:03:11;36.60;;;14.17;;
53961;SDS011;39868;53.398;6.564;2022-12-18T02:08:23;26.63;;;12.07;;
53961;SDS011;39868;53.398;6.564;2022-12-18T02:11:10;34.30;;;13.27;;
53961;SDS011;39868;53.398;6.564;2022-12-18T02:16:52;37.07;;;12.23;;
53961;SDS011;39868;53.398;6.564;2022-12-18T02:25:41;31.07;;;12.20;;
53961;SDS011;39868;53.398;6.564;2022-12-18T02:28:30;29.37;;;11.67;;
53961;SDS011;39868;53.398;6.564;2022-12-18T02:31:04;33.53;;;13.00;;
53961;SDS011;39868;53.398;6.564;2022-12-18T02:33:36;31.38;;;13.40;;
53961;SDS011;39868;53.398;6.564;2022-12-18T02:36:06;29.33;;;13.00;;
53961;SDS011;39868;53.398;6.564;2022-12-18T02:38:36;39.63;;;13.80;;
53961;SDS011;39868;53.398;6.564;2022-12-18T02:41:10;38.70;;;13.70;;
53961;SDS011;39868;53.398;6.564;2022-12-18T02:43:40;31.23;;;13.30;;
53961;SDS011;39868;53.398;6.564;2022-12-18T02:46:23;34.97;;;13.03;;
53961;SDS011;39868;53.398;6.564;2022-12-18T02:49:49;31.17;;;12.83;;
53961;SDS011;39868;53.398;6.564;2022-12-18T03:00:16;32.73;;;13.00;;
53961;SDS011;39868;53.398;6.564;2022-12-18T03:05:47;30.90;;;12.00;;
53961;SDS011;39868;53.398;6.564;2022-12-18T03:08:21;27.53;;;12.77;;
53961;SDS011;39868;53.398;6.564;2022-12-18T03:10:58;33.50;;;13.53;;
53961;SDS011;39868;53.398;6.564;2022-12-18T03:13:37;36.90;;;13.87;;
53961;SDS011;39868;53.398;6.564;2022-12-18T03:16:14;30.10;;;11.40;;
53961;SDS011;39868;53.398;6.564;2022-12-18T03:19:11;39.60;;;14.77;;
53961;SDS011;39868;53.398;6.564;2022-12-18T03:21:45;33.83;;;15.17;;
53961;SDS011;39868;53.398;6.564;2022-12-18T03:24:16;33.60;;;13.35;;
53961;SDS011;39868;53.398;6.564;2022-12-18T03:26:47;28.50;;;13.33;;
53961;SDS011;39868;53.398;6.564;2022-12-18T03:32:07;29.17;;;11.90;;
53961;SDS011;39868;53.398;6.564;2022-12-18T03:34:49;32.43;;;13.17;;
53961;SDS011;39868;53.398;6.564;2022-12-18T03:37:22;27.40;;;10.70;;
53961;SDS011;39868;53.398;6.564;2022-12-18T03:39:51;33.70;;;12.33;;
53961;SDS011;39868;53.398;6.564;2022-12-18T03:45:27;41.90;;;14.47;;
53961;SDS011;39868;53.398;6.564;2022-12-18T03:48:06;29.07;;;11.30;;
53961;SDS011;39868;53.398;6.564;2022-12-18T03:50:59;34.17;;;13.63;;
53961;SDS011;39868;53.398;6.564;2022-12-18T03:53:45;39.93;;;15.10;;
53961;SDS011;39868;53.398;6.564;2022-12-18T03:56:22;37.63;;;15.27;;
53961;SDS011;39868;53.398;6.564;2022-12-18T03:58:55;33.80;;;14.00;;
53961;SDS011;39868;53.398;6.564;2022-12-18T04:01:32;32.40;;;12.43;;
53961;SDS011;39868;53.398;6.564;2022-12-18T04:04:04;32.73;;;12.63;;
53961;SDS011;39868;53.398;6.564;2022-12-18T04:09:07;25.47;;;11.93;;
53961;SDS011;39868;53.398;6.564;2022-12-18T04:11:39;38.15;;;14.27;;
53961;SDS011;39868;53.398;6.564;2022-12-18T04:14:14;29.60;;;13.10;;
53961;SDS011;39868;53.398;6.564;2022-12-18T04:16:47;35.97;;;13.93;;
53961;SDS011;39868;53.398;6.564;2022-12-18T04:19:17;39.77;;;15.00;;
53961;SDS011;39868;53.398;6.564;2022-12-18T04:21:48;33.37;;;12.83;;
53961;SDS011;39868;53.398;6.564;2022-12-18T04:24:16;29.73;;;13.40;;
53961;SDS011;39868;53.398;6.564;2022-12-18T04:26:53;37.10;;;12.43;;
53961;SDS011;39868;53.398;6.564;2022-12-18T04:29:24;28.10;;;10.87;;
53961;SDS011;39868;53.398;6.564;2022-12-18T04:31:52;32.70;;;14.33;;
53961;SDS011;39868;53.398;6.564;2022-12-18T04:34:20;26.47;;;12.43;;
53961;SDS011;39868;53.398;6.564;2022-12-18T04:36:51;38.87;;;15.83;;
53961;SDS011;39868;53.398;6.564;2022-12-18T04:39:20;41.00;;;14.17;;
53961;SDS011;39868;53.398;6.564;2022-12-18T04:41:50;32.20;;;12.57;;
53961;SDS011;39868;53.398;6.564;2022-12-18T04:44:18;30.30;;;14.27;;
53961;SDS011;39868;53.398;6.564;2022-12-18T04:46:45;32.80;;;11.80;;
53961;SDS011;39868;53.398;6.564;2022-12-18T04:49:13;33.27;;;13.43;;
53961;SDS011;39868;53.398;6.564;2022-12-18T04:51:41;36.67;;;14.33;;
53961;SDS011;39868;53.398;6.564;2022-12-18T04:54:08;32.83;;;12.23;;
53961;SDS011;39868;53.398;6.564;2022-12-18T04:56:36;27.43;;;11.57;;
53961;SDS011;39868;53.398;6.564;2022-12-18T04:59:03;39.13;;;12.77;;
53961;SDS011;39868;53.398;6.564;2022-12-18T05:01:31;42.20;;;13.93;;
53961;SDS011;39868;53.398;6.564;2022-12-18T05:04:01;38.97;;;14.43;;
53961;SDS011;39868;53.398;6.564;2022-12-18T05:06:29;31.13;;;12.63;;
53961;SDS011;39868;53.398;6.564;2022-12-18T05:08:56;31.47;;;12.23;;
53961;SDS011;39868;53.398;6.564;2022-12-18T05:11:24;34.33;;;13.17;;
53961;SDS011;39868;53.398;6.564;2022-12-18T05:13:51;32.17;;;13.70;;
53961;SDS011;39868;53.398;6.564;2022-12-18T05:16:19;34.70;;;12.70;;
53961;SDS011;39868;53.398;6.564;2022-12-18T05:18:47;31.53;;;12.47;;
53961;SDS011;39868;53.398;6.564;2022-12-18T05:21:14;39.33;;;15.57;;
53961;SDS011;39868;53.398;6.564;2022-12-18T05:23:42;37.87;;;14.70;;
53961;SDS011;39868;53.398;6.564;2022-12-18T05:26:10;26.30;;;13.00;;
53961;SDS011;39868;53.398;6.564;2022-12-18T05:28:44;33.93;;;13.10;;
53961;SDS011;39868;53.398;6.564;2022-12-18T05:31:12;32.50;;;13.43;;
53961;SDS011;39868;53.398;6.564;2022-12-18T05:36:41;31.87;;;12.47;;
53961;SDS011;39868;53.398;6.564;2022-12-18T05:39:10;35.80;;;13.17;;
53961;SDS011;39868;53.398;6.564;2022-12-18T05:41:37;31.23;;;11.97;;
53961;SDS011;39868;53.398;6.564;2022-12-18T05:44:05;30.17;;;12.60;;
53961;SDS011;39868;53.398;6.564;2022-12-18T05:46:32;28.03;;;12.27;;
53961;SDS011;39868;53.398;6.564;2022-12-18T05:49:00;38.17;;;11.77;;
53961;SDS011;39868;53.398;6.564;2022-12-18T05:51:30;32.53;;;12.33;;
53961;SDS011;39868;53.398;6.564;2022-12-18T05:53:58;32.13;;;12.03;;
53961;SDS011;39868;53.398;6.564;2022-12-18T05:56:25;29.63;;;13.10;;
53961;SDS011;39868;53.398;6.564;2022-12-18T05:58:53;22.63;;;10.37;;
53961;SDS011;39868;53.398;6.564;2022-12-18T06:01:22;26.00;;;11.03;;
53961;SDS011;39868;53.398;6.564;2022-12-18T06:03:52;30.63;;;12.50;;
53961;SDS011;39868;53.398;6.564;2022-12-18T06:06:21;25.27;;;12.73;;
53961;SDS011;39868;53.398;6.564;2022-12-18T06:08:51;23.67;;;10.00;;
53961;SDS011;39868;53.398;6.564;2022-12-18T06:11:19;25.23;;;10.40;;
53961;SDS011;39868;53.398;6.564;2022-12-18T06:13:50;30.27;;;12.60;;
53961;SDS011;39868;53.398;6.564;2022-12-18T06:16:25;29.97;;;12.90;;
53961;SDS011;39868;53.398;6.564;2022-12-18T06:18:57;23.95;;;10.85;;
53961;SDS011;39868;53.398;6.564;2022-12-18T06:21:26;33.30;;;11.03;;
53961;SDS011;39868;53.398;6.564;2022-12-18T06:23:54;36.50;;;13.73;;
53961;SDS011;39868;53.398;6.564;2022-12-18T06:26:24;27.20;;;11.73;;
53961;SDS011;39868;53.398;6.564;2022-12-18T06:28:54;34.17;;;12.67;;
53961;SDS011;39868;53.398;6.564;2022-12-18T06:31:22;28.77;;;12.40;;
53961;SDS011;39868;53.398;6.564;2022-12-18T06:33:49;30.00;;;11.90;;
53961;SDS011;39868;53.398;6.564;2022-12-18T06:36:17;36.83;;;12.40;;
53961;SDS011;39868;53.398;6.564;2022-12-18T06:38:45;30.87;;;10.80;;
53961;SDS011;39868;53.398;6.564;2022-12-18T06:41:14;31.43;;;11.07;;
53961;SDS011;39868;53.398;6.564;2022-12-18T06:43:45;28.07;;;11.60;;
53961;SDS011;39868;53.398;6.564;2022-12-18T06:46:13;29.37;;;11.53;;
53961;SDS011;39868;53.398;6.564;2022-12-18T06:48:41;27.20;;;11.20;;
53961;SDS011;39868;53.398;6.564;2022-12-18T06:51:08;30.13;;;11.17;;
53961;SDS011;39868;53.398;6.564;2022-12-18T06:53:37;20.30;;;10.63;;
53961;SDS011;39868;53.398;6.564;2022-12-18T06:56:06;38.97;;;12.13;;
53961;SDS011;39868;53.398;6.564;2022-12-18T06:58:36;25.63;;;11.67;;
53961;SDS011;39868;53.398;6.564;2022-12-18T07:01:06;30.20;;;9.97;;
53961;SDS011;39868;53.398;6.564;2022-12-18T07:03:36;27.23;;;10.30;;
53961;SDS011;39868;53.398;6.564;2022-12-18T07:06:05;26.00;;;10.63;;
53961;SDS011;39868;53.398;6.564;2022-12-18T07:08:32;25.77;;;9.87;;
53961;SDS011;39868;53.398;6.564;2022-12-18T07:11:02;22.73;;;10.10;;
53961;SDS011;39868;53.398;6.564;2022-12-18T07:13:31;23.77;;;10.27;;
53961;SDS011;39868;53.398;6.564;2022-12-18T07:16:08;22.63;;;9.67;;
53961;SDS011;39868;53.398;6.564;2022-12-18T07:18:48;19.87;;;8.20;;
53961;SDS011;39868;53.398;6.564;2022-12-18T07:21:16;22.63;;;9.73;;
53961;SDS011;39868;53.398;6.564;2022-12-18T07:23:46;20.13;;;9.00;;
53961;SDS011;39868;53.398;6.564;2022-12-18T07:26:16;24.23;;;9.80;;
53961;SDS011;39868;53.398;6.564;2022-12-18T07:28:45;22.57;;;9.60;;
53961;SDS011;39868;53.398;6.564;2022-12-18T07:31:15;24.17;;;9.60;;
53961;SDS011;39868;53.398;6.564;2022-12-18T07:33:47;20.83;;;9.77;;
53961;SDS011;39868;53.398;6.564;2022-12-18T07:36:15;16.70;;;8.07;;
53961;SDS011;39868;53.398;6.564;2022-12-18T07:38:46;24.80;;;10.10;;
53961;SDS011;39868;53.398;6.564;2022-12-18T07:41:14;21.17;;;9.63;;
53961;SDS011;39868;53.398;6.564;2022-12-18T07:43:42;16.40;;;8.20;;
53961;SDS011;39868;53.398;6.564;2022-12-18T07:46:11;19.70;;;8.70;;
53961;SDS011;39868;53.398;6.564;2022-12-18T07:48:45;21.23;;;7.20;;
53961;SDS011;39868;53.398;6.564;2022-12-18T07:51:16;19.67;;;8.93;;
53961;SDS011;39868;53.398;6.564;2022-12-18T07:53:44;20.37;;;8.87;;
53961;SDS011;39868;53.398;6.564;2022-12-18T07:56:14;15.73;;;8.80;;
53961;SDS011;39868;53.398;6.564;2022-12-18T07:58:58;19.75;;;8.23;;
53961;SDS011;39868;53.398;6.564;2022-12-18T08:01:26;15.03;;;7.97;;
53961;SDS011;39868;53.398;6.564;2022-12-18T08:03:54;21.93;;;8.90;;
53961;SDS011;39868;53.398;6.564;2022-12-18T08:06:21;16.60;;;8.30;;
53961;SDS011;39868;53.398;6.564;2022-12-18T08:08:51;15.70;;;7.07;;
53961;SDS011;39868;53.398;6.564;2022-12-18T08:11:20;21.30;;;8.63;;
53961;SDS011;39868;53.398;6.564;2022-12-18T08:13:48;23.37;;;9.47;;
53961;SDS011;39868;53.398;6.564;2022-12-18T08:16:16;21.10;;;8.67;;
53961;SDS011;39868;53.398;6.564;2022-12-18T08:18:45;20.70;;;10.60;;
53961;SDS011;39868;53.398;6.564;2022-12-18T08:21:16;26.57;;;9.53;;
53961;SDS011;39868;53.398;6.564;2022-12-18T08:23:51;30.03;;;13.20;;
53961;SDS011;39868;53.398;6.564;2022-12-18T08:26:20;20.43;;;11.27;;
53961;SDS011;39868;53.398;6.564;2022-12-18T08:28:48;23.17;;;11.70;;
53961;SDS011;39868;53.398;6.564;2022-12-18T08:31:17;26.20;;;12.47;;
53961;SDS011;39868;53.398;6.564;2022-12-18T08:33:48;19.43;;;10.33;;
53961;SDS011;39868;53.398;6.564;2022-12-18T08:36:16;21.30;;;9.37;;
53961;SDS011;39868;53.398;6.564;2022-12-18T08:38:44;23.57;;;12.33;;
53961;SDS011;39868;53.398;6.564;2022-12-18T08:41:14;18.17;;;9.73;;
53961;SDS011;39868;53.398;6.564;2022-12-18T08:43:42;24.73;;;16.17;;
53961;SDS011;39868;53.398;6.564;2022-12-18T08:46:31;32.73;;;20.87;;
53961;SDS011;39868;53.398;6.564;2022-12-18T08:49:02;23.97;;;11.13;;
53961;SDS011;39868;53.398;6.564;2022-12-18T08:51:30;21.53;;;11.13;;
53961;SDS011;39868;53.398;6.564;2022-12-18T08:53:58;23.27;;;12.00;;
53961;SDS011;39868;53.398;6.564;2022-12-18T08:56:26;17.03;;;9.10;;
53961;SDS011;39868;53.398;6.564;2022-12-18T08:58:54;17.97;;;9.67;;
53961;SDS011;39868;53.398;6.564;2022-12-18T09:01:22;18.13;;;9.73;;
53961;SDS011;39868;53.398;6.564;2022-12-18T09:03:50;17.47;;;11.13;;
53961;SDS011;39868;53.398;6.564;2022-12-18T09:06:18;23.40;;;10.10;;
53961;SDS011;39868;53.398;6.564;2022-12-18T09:08:46;21.10;;;11.20;;
53961;SDS011;39868;53.398;6.564;2022-12-18T09:11:21;23.40;;;9.90;;
53961;SDS011;39868;53.398;6.564;2022-12-18T09:13:51;16.53;;;9.20;;
53961;SDS011;39868;53.398;6.564;2022-12-18T09:16:20;21.30;;;10.23;;
53961;SDS011;39868;53.398;6.564;2022-12-18T09:18:57;16.63;;;9.37;;
53961;SDS011;39868;53.398;6.564;2022-12-18T09:21:30;15.97;;;8.87;;
53961;SDS011;39868;53.398;6.564;2022-12-18T09:24:03;14.70;;;9.20;;
53961;SDS011;39868;53.398;6.564;2022-12-18T09:26:34;16.98;;;9.05;;
53961;SDS011;39868;53.398;6.564;2022-12-18T09:29:04;20.40;;;9.00;;
53961;SDS011;39868;53.398;6.564;2022-12-18T09:31:34;16.80;;;11.23;;
53961;SDS011;39868;53.398;6.564;2022-12-18T09:34:05;23.07;;;11.13;;
53961;SDS011;39868;53.398;6.564;2022-12-18T09:36:33;21.17;;;11.23;;
53961;SDS011;39868;53.398;6.564;2022-12-18T09:39:01;17.87;;;8.87;;
53961;SDS011;39868;53.398;6.564;2022-12-18T09:46:44;17.40;;;10.53;;
53961;SDS011;39868;53.398;6.564;2022-12-18T09:49:34;17.07;;;8.83;;
53961;SDS011;39868;53.398;6.564;2022-12-18T09:52:27;16.37;;;9.67;;
53961;SDS011;39868;53.398;6.564;2022-12-18T09:57:42;17.47;;;9.60;;
53961;SDS011;39868;53.398;6.564;2022-12-18T10:00:19;13.67;;;8.00;;
53961;SDS011;39868;53.398;6.564;2022-12-18T10:02:48;15.67;;;8.10;;
53961;SDS011;39868;53.398;6.564;2022-12-18T10:13:42;15.50;;;7.43;;
53961;SDS011;39868;53.398;6.564;2022-12-18T10:16:19;16.77;;;8.33;;
53961;SDS011;39868;53.398;6.564;2022-12-18T10:19:09;10.23;;;5.80;;
53961;SDS011;39868;53.398;6.564;2022-12-18T10:27:23;17.90;;;9.43;;
53961;SDS011;39868;53.398;6.564;2022-12-18T10:29:51;16.30;;;10.17;;
53961;SDS011;39868;53.398;6.564;2022-12-18T10:32:20;13.30;;;6.80;;
53961;SDS011;39868;53.398;6.564;2022-12-18T10:34:54;15.20;;;7.83;;
53961;SDS011;39868;53.398;6.564;2022-12-18T10:37:27;16.63;;;7.77;;
53961;SDS011;39868;53.398;6.564;2022-12-18T10:40:13;22.77;;;13.07;;
53961;SDS011;39868;53.398;6.564;2022-12-18T10:43:02;17.57;;;8.67;;
53961;SDS011;39868;53.398;6.564;2022-12-18T10:46:04;16.50;;;8.83;;
53961;SDS011;39868;53.398;6.564;2022-12-18T10:51:06;12.37;;;6.93;;
53961;SDS011;39868;53.398;6.564;2022-12-18T10:53:39;12.88;;;6.38;;
53961;SDS011;39868;53.398;6.564;2022-12-18T10:56:10;14.97;;;8.20;;
53961;SDS011;39868;53.398;6.564;2022-12-18T10:58:38;9.13;;;5.80;;
53961;SDS011;39868;53.398;6.564;2022-12-18T11:06:11;10.87;;;6.40;;
53961;SDS011;39868;53.398;6.564;2022-12-18T11:09:01;12.00;;;6.23;;
53961;SDS011;39868;53.398;6.564;2022-12-18T11:11:52;11.20;;;6.33;;
53961;SDS011;39868;53.398;6.564;2022-12-18T11:14:41;15.07;;;7.77;;
53961;SDS011;39868;53.398;6.564;2022-12-18T11:17:20;11.87;;;6.37;;
53961;SDS011;39868;53.398;6.564;2022-12-18T11:19:56;15.93;;;9.40;;
53961;SDS011;39868;53.398;6.564;2022-12-18T11:22:32;12.83;;;6.67;;
53961;SDS011;39868;53.398;6.564;2022-12-18T11:25:03;10.60;;;6.17;;
53961;SDS011;39868;53.398;6.564;2022-12-18T11:30:32;12.73;;;5.47;;
53961;SDS011;39868;53.398;6.564;2022-12-18T11:33:18;11.67;;;6.00;;
53961;SDS011;39868;53.398;6.564;2022-12-18T11:35:58;11.70;;;6.60;;
53961;SDS011;39868;53.398;6.564;2022-12-18T11:46:18;12.90;;;5.85;;
53961;SDS011;39868;53.398;6.564;2022-12-18T11:49:34;12.50;;;5.47;;
53961;SDS011;39868;53.398;6.564;2022-12-18T11:52:19;10.63;;;5.33;;
53961;SDS011;39868;53.398;6.564;2022-12-18T11:54:55;7.03;;;5.03;;
53961;SDS011;39868;53.398;6.564;2022-12-18T12:00:26;8.63;;;4.43;;
53961;SDS011;39868;53.398;6.564;2022-12-18T12:03:16;10.60;;;3.93;;
53961;SDS011;39868;53.398;6.564;2022-12-18T12:05:50;9.10;;;3.90;;
53961;SDS011;39868;53.398;6.564;2022-12-18T12:24:53;6.23;;;3.43;;
53961;SDS011;39868;53.398;6.564;2022-12-18T12:33:27;7.40;;;4.60;;
53961;SDS011;39868;53.398;6.564;2022-12-18T12:38:49;11.30;;;4.27;;
53961;SDS011;39868;53.398;6.564;2022-12-18T12:41:25;4.87;;;3.40;;
53961;SDS011;39868;53.398;6.564;2022-12-18T12:44:17;7.97;;;3.47;;
53961;SDS011;39868;53.398;6.564;2022-12-18T12:46:52;8.37;;;4.23;;
53961;SDS011;39868;53.398;6.564;2022-12-18T12:49:26;9.03;;;4.10;;
53961;SDS011;39868;53.398;6.564;2022-12-18T12:54:33;11.20;;;3.60;;
53961;SDS011;39868;53.398;6.564;2022-12-18T13:00:08;7.77;;;3.10;;
53961;SDS011;39868;53.398;6.564;2022-12-18T13:02:48;8.97;;;3.70;;
53961;SDS011;39868;53.398;6.564;2022-12-18T13:08:23;5.90;;;3.30;;
53961;SDS011;39868;53.398;6.564;2022-12-18T13:10:55;6.37;;;3.37;;
53961;SDS011;39868;53.398;6.564;2022-12-18T13:13:52;5.87;;;3.30;;
53961;SDS011;39868;53.398;6.564;2022-12-18T13:16:24;7.10;;;3.03;;
53961;SDS011;39868;53.398;6.564;2022-12-18T13:18:54;5.85;;;3.72;;
53961;SDS011;39868;53.398;6.564;2022-12-18T13:21:29;6.97;;;3.07;;
53961;SDS011;39868;53.398;6.564;2022-12-18T13:24:22;6.67;;;3.53;;
53961;SDS011;39868;53.398;6.564;2022-12-18T13:26:57;6.73;;;3.77;;
53961;SDS011;39868;53.398;6.564;2022-12-18T13:32:23;6.97;;;3.13;;
53961;SDS011;39868;53.398;6.564;2022-12-18T13:37:51;9.40;;;3.43;;
53961;SDS011;39868;53.398;6.564;2022-12-18T13:48:56;5.80;;;3.80;;
53961;SDS011;39868;53.398;6.564;2022-12-18T13:51:44;6.00;;;3.03;;
53961;SDS011;39868;53.398;6.564;2022-12-18T13:54:28;5.03;;;2.88;;
53961;SDS011;39868;53.398;6.564;2022-12-18T13:56:57;6.60;;;3.80;;
53961;SDS011;39868;53.398;6.564;2022-12-18T13:59:25;6.87;;;3.03;;
53961;SDS011;39868;53.398;6.564;2022-12-18T14:02:00;6.90;;;3.40;;
53961;SDS011;39868;53.398;6.564;2022-12-18T14:04:37;3.73;;;2.87;;
53961;SDS011;39868;53.398;6.564;2022-12-18T14:07:06;5.80;;;2.90;;
53961;SDS011;39868;53.398;6.564;2022-12-18T14:09:41;6.77;;;3.33;;
53961;SDS011;39868;53.398;6.564;2022-12-18T14:17:55;7.17;;;3.43;;
53961;SDS011;39868;53.398;6.564;2022-12-18T14:20:39;8.17;;;4.03;;
53961;SDS011;39868;53.398;6.564;2022-12-18T14:26:02;8.57;;;3.97;;
53961;SDS011;39868;53.398;6.564;2022-12-18T14:28:45;6.43;;;3.63;;
53961;SDS011;39868;53.398;6.564;2022-12-18T14:31:22;9.70;;;4.40;;
53961;SDS011;39868;53.398;6.564;2022-12-18T14:33:51;5.93;;;3.20;;
53961;SDS011;39868;53.398;6.564;2022-12-18T15:55:45;12.90;;;5.38;;
53961;SDS011;39868;53.398;6.564;2022-12-18T15:58:32;9.17;;;4.67;;
53961;SDS011;39868;53.398;6.564;2022-12-18T16:01:00;10.40;;;5.00;;
53961;SDS011;39868;53.398;6.564;2022-12-18T16:03:29;8.60;;;5.37;;
53961;SDS011;39868;53.398;6.564;2022-12-18T16:05:57;10.07;;;4.67;;
53961;SDS011;39868;53.398;6.564;2022-12-18T16:08:28;9.60;;;5.03;;
53961;SDS011;39868;53.398;6.564;2022-12-18T16:10:56;12.47;;;4.73;;
53961;SDS011;39868;53.398;6.564;2022-12-18T16:13:25;11.67;;;5.30;;
53961;SDS011;39868;53.398;6.564;2022-12-18T16:15:52;9.10;;;4.13;;
53961;SDS011;39868;53.398;6.564;2022-12-18T16:18:20;8.60;;;5.07;;
53961;SDS011;39868;53.398;6.564;2022-12-18T16:20:48;8.67;;;4.73;;
53961;SDS011;39868;53.398;6.564;2022-12-18T16:23:16;10.93;;;5.77;;
53961;SDS011;39868;53.398;6.564;2022-12-18T16:25:44;12.47;;;5.53;;
53961;SDS011;39868;53.398;6.564;2022-12-18T16:28:11;8.37;;;4.40;;
53961;SDS011;39868;53.398;6.564;2022-12-18T16:30:39;11.93;;;5.17;;
53961;SDS011;39868;53.398;6.564;2022-12-18T16:33:07;10.93;;;4.03;;
53961;SDS011;39868;53.398;6.564;2022-12-18T16:35:37;8.07;;;4.83;;
53961;SDS011;39868;53.398;6.564;2022-12-18T16:38:04;10.77;;;5.27;;
53961;SDS011;39868;53.398;6.564;2022-12-18T16:40:32;9.80;;;4.60;;
53961;SDS011;39868;53.398;6.564;2022-12-18T16:43:00;10.20;;;4.17;;
53961;SDS011;39868;53.398;6.564;2022-12-18T16:45:27;10.27;;;4.50;;
53961;SDS011;39868;53.398;6.564;2022-12-18T16:47:59;7.00;;;3.75;;
53961;SDS011;39868;53.398;6.564;2022-12-18T16:50:27;7.40;;;3.83;;
53961;SDS011;39868;53.398;6.564;2022-12-18T16:52:55;11.63;;;4.77;;
53961;SDS011;39868;53.398;6.564;2022-12-18T16:55:22;8.77;;;4.87;;
53961;SDS011;39868;53.398;6.564;2022-12-18T16:57:50;9.47;;;4.27;;
53961;SDS011;39868;53.398;6.564;2022-12-18T17:00:17;7.47;;;4.30;;
53961;SDS011;39868;53.398;6.564;2022-12-18T17:02:45;15.87;;;5.40;;
53961;SDS011;39868;53.398;6.564;2022-12-18T17:05:14;10.00;;;3.83;;
53961;SDS011;39868;53.398;6.564;2022-12-18T17:07:41;10.33;;;4.33;;
53961;SDS011;39868;53.398;6.564;2022-12-18T17:10:09;8.93;;;4.10;;
53961;SDS011;39868;53.398;6.564;2022-12-18T17:12:36;7.47;;;3.60;;
53961;SDS011;39868;53.398;6.564;2022-12-18T17:15:04;7.83;;;4.23;;
53961;SDS011;39868;53.398;6.564;2022-12-18T17:17:32;5.40;;;4.00;;
53961;SDS011;39868;53.398;6.564;2022-12-18T17:20:02;7.40;;;3.80;;
53961;SDS011;39868;53.398;6.564;2022-12-18T17:22:30;8.20;;;4.30;;
53961;SDS011;39868;53.398;6.564;2022-12-18T17:24:58;9.57;;;4.20;;
53961;SDS011;39868;53.398;6.564;2022-12-18T17:27:25;8.37;;;4.23;;
53961;SDS011;39868;53.398;6.564;2022-12-18T17:29:53;9.63;;;4.53;;
53961;SDS011;39868;53.398;6.564;2022-12-18T17:32:21;9.73;;;5.50;;
53961;SDS011;39868;53.398;6.564;2022-12-18T17:34:48;8.70;;;3.97;;
53961;SDS011;39868;53.398;6.564;2022-12-18T17:37:16;9.00;;;3.93;;
53961;SDS011;39868;53.398;6.564;2022-12-18T17:39:44;7.57;;;4.07;;
53961;SDS011;39868;53.398;6.564;2022-12-18T17:42:11;8.20;;;3.80;;
53961;SDS011;39868;53.398;6.564;2022-12-18T17:44:41;10.60;;;3.93;;
53961;SDS011;39868;53.398;6.564;2022-12-18T17:47:09;7.57;;;4.53;;
53961;SDS011;39868;53.398;6.564;2022-12-18T17:49:38;7.03;;;4.17;;
53961;SDS011;39868;53.398;6.564;2022-12-18T17:52:06;7.07;;;3.97;;
53961;SDS011;39868;53.398;6.564;2022-12-18T17:54:34;9.83;;;4.60;;
53961;SDS011;39868;53.398;6.564;2022-12-18T17:57:05;10.97;;;4.13;;
53961;SDS011;39868;53.398;6.564;2022-12-18T17:59:33;6.27;;;3.73;;
53961;SDS011;39868;53.398;6.564;2022-12-18T18:02:00;8.13;;;3.90;;
53961;SDS011;39868;53.398;6.564;2022-12-18T18:04:28;6.60;;;3.80;;
53961;SDS011;39868;53.398;6.564;2022-12-18T18:06:56;8.03;;;4.63;;
53961;SDS011;39868;53.398;6.564;2022-12-18T18:09:23;8.80;;;4.03;;
53961;SDS011;39868;53.398;6.564;2022-12-18T18:11:51;6.70;;;3.90;;
53961;SDS011;39868;53.398;6.564;2022-12-18T18:14:37;8.83;;;4.70;;
53961;SDS011;39868;53.398;6.564;2022-12-18T18:17:05;8.70;;;4.20;;
53961;SDS011;39868;53.398;6.564;2022-12-18T18:19:32;8.93;;;3.90;;
53961;SDS011;39868;53.398;6.564;2022-12-18T18:22:00;8.80;;;5.07;;
53961;SDS011;39868;53.398;6.564;2022-12-18T18:24:29;7.30;;;3.77;;
53961;SDS011;39868;53.398;6.564;2022-12-18T18:26:58;10.10;;;4.20;;
53961;SDS011;39868;53.398;6.564;2022-12-18T18:29:26;7.40;;;4.00;;
53961;SDS011;39868;53.398;6.564;2022-12-18T18:31:56;9.20;;;3.83;;
53961;SDS011;39868;53.398;6.564;2022-12-18T18:34:25;8.47;;;4.80;;
53961;SDS011;39868;53.398;6.564;2022-12-18T18:36:58;7.73;;;4.30;;
53961;SDS011;39868;53.398;6.564;2022-12-18T18:39:26;6.80;;;3.97;;
53961;SDS011;39868;53.398;6.564;2022-12-18T18:41:54;10.43;;;4.37;;